Aeroporto :
LOGIN :

Iscrizione | Disclaimer

   EN    FR    IT 

 










Sommario :    VFR   VFR Marginale   IFR   IFR Intensivo   IFR Molto Intensivo
Visibilità : 
Base nubi : 
>= 8 km
>= 3000ft
5 / 8 km
1000 / 3000 ft
1500m / 5 km
500 / 1000 ft
800 / 1500m
200 / 500 ft
< 800m
< 200 ft
Simboli :   Temporali  Nebbia  Neve Forte  Precipitazioni Forti  Vento > 20 kt
SIGMETs :   Varie  Temporali  Ghiacco  Turbolenza  Onda orograficha  Ceneri Vulcaniche






- Altitudine del aeroporto : 215 ft
- Codice IATA : ABZ


EGPD - Aberdeen / Dyce

ULTIMO METAR :
  • 090050Z AUTO 31005KT 9999 BKN045 05/03 Q1027 NOSIG

METARs OBSOLETI :
  • 090020Z AUTO 30005KT 9999 BKN045 05/03 Q1027
  • 082350Z AUTO 32005KT 9999 BKN045 05/03 Q1027 NOSIG
  • 082320Z AUTO 32005KT 9999 BKN045 05/03 Q1027 NOSIG
  • 082250Z AUTO 32004KT 9999 BKN043 05/03 Q1027 NOSIG
  • 082220Z AUTO 29006KT 9999 OVC044 05/03 Q1027 NOSIG

TAF TAF EGPD
Valido dal 09 a 00 ore il 10 a 00 ore UTC


082304Z 0900/0924 32006KT 9999 FEW010 SCT020
BECMG 0906/0909 15010KT



MetMap, La meteo Aeronautica in un colpo d'occhio ! - Copyright ORBIFLY Dicembre 2007 - Disclaimer

ORBIFLY MET'MAP TEAM :

Programmazione e sviluppo : Alexandra Zaïnal
Concezione : Baudouin d'Aumeries
Aiuto per la programmazione : Marc-Olivier Méhu
Supporto tecnico e logistico : Manuel Goepfert
Aiuto per la traduzione : Arnaldo La Scala

Contatto : metmap@orbifly.com




FONTI E CREDITI :

   NOAA